Time;durP1;ratioP1;P1;durP2;ratioP2;P2;SDS_P1;SDS_P2;PMS_P1;PMS_P2;Temp;Humidity;BMP_temperature;BMP_pressure;BME280_temperature;BME280_humidity;BME280_pressure;Samples;Min_cycle;Max_cycle;Signal;HPM_P1;HPM_P2
2022/09/17 00:00:22;;;;;;;12.57;9.35;;;;;;;12.57;92.42;97864.97;5064393;28;20029;-69
2022/09/17 00:02:54;;;;;;;12.23;11.02;;;;;;;12.56;91.87;97871.09;5069515;28;20055;-71
2022/09/17 00:05:23;;;;;;;;;;;;;;;12.53;92.05;97870.44;5067549;28;20096;-70
2022/09/17 00:07:50;;;;;;;11.38;10.18;;;;;;;12.49;91.41;97877.56;5064084;28;19954;-70
2022/09/17 00:10:18;;;;;;;11.57;10.35;;;;;;;12.47;91.65;97870.78;5062609;28;20051;-70
2022/09/17 00:12:44;;;;;;;11.23;9.90;;;;;;;12.47;92.27;97876.84;5062155;28;20056;-72
2022/09/17 00:15:10;;;;;;;12.23;9.68;;;;;;;12.43;91.77;97878.75;5062711;28;20027;-72
2022/09/17 00:17:35;;;;;;;12.73;9.93;;;;;;;12.40;91.88;97872.94;5062986;28;20033;-71
2022/09/17 00:20:01;;;;;;;10.75;9.65;;;;;;;12.42;91.12;97879.69;5045316;28;20101;-71
2022/09/17 00:22:28;;;;;;;10.45;9.45;;;;;;;12.40;91.92;97891.09;5063830;28;20024;-71
2022/09/17 00:24:54;;;;;;;14.43;12.05;;;;;;;12.33;91.35;97874.22;5063695;28;20051;-72
2022/09/17 00:27:20;;;;;;;11.27;10.18;;;;;;;12.35;91.22;97886.16;5062079;28;20676;-71
2022/09/17 00:29:47;;;;;;;12.35;9.02;;;;;;;12.26;91.01;97884.09;5063493;28;20028;-71
2022/09/17 00:32:13;;;;;;;11.90;9.95;;;;;;;12.32;91.35;97893.28;5063329;28;20036;-71
2022/09/17 00:34:38;;;;;;;10.48;9.48;;;;;;;12.29;91.00;97883.09;5061968;28;20020;-70
2022/09/17 00:37:04;;;;;;;10.85;9.27;;;;;;;12.31;90.87;97892.44;5061871;28;20232;-69
2022/09/17 00:39:30;;;;;;;10.18;9.13;;;;;;;12.30;91.12;97900.31;5063437;28;20024;-69
2022/09/17 00:41:55;;;;;;;11.70;9.80;;;;;;;12.21;91.70;97892.16;5058674;28;20025;-69
2022/09/17 00:44:46;;;;;;;12.55;9.75;;;;;;;12.26;91.59;97904.88;5057452;28;20041;-69
2022/09/17 00:47:23;;;;;;;12.10;9.10;;;;;;;12.14;90.96;97889.97;5062839;28;20029;-69
2022/09/17 00:49:52;;;;;;;12.77;10.15;;;;;;;12.14;90.84;97888.25;5063308;28;20100;-70
2022/09/17 00:52:25;;;;;;;11.18;9.80;;;;;;;12.18;91.09;97905.28;5062256;28;20032;-71
2022/09/17 00:55:00;;;;;;;11.50;9.80;;;;;;;12.13;91.31;97909.91;5062750;28;20328;-69
2022/09/17 00:57:27;;;;;;;14.88;10.20;;;;;;;12.09;91.05;97908.41;5063237;28;20048;-68
2022/09/17 00:59:53;;;;;;;10.35;9.30;;;;;;;11.98;90.67;97901.22;5061937;28;20040;-69
2022/09/17 01:02:19;;;;;;;10.45;9.30;;;;;;;12.00;90.97;97909.78;5061266;28;20248;-70
2022/09/17 01:04:45;;;;;;;10.90;9.60;;;;;;;12.01;90.50;97915.78;5063027;28;20053;-69
2022/09/17 01:07:47;;;;;;;12.30;10.25;;;;;;;11.99;91.02;97917.66;5062682;28;20032;-69
2022/09/17 01:10:25;;;;;;;10.38;9.38;;;;;;;11.96;91.21;97917.81;5062431;28;20083;-69
2022/09/17 01:13:35;;;;;;;11.25;9.25;;;;;;;11.96;91.60;97910.88;5063166;28;20067;-70
2022/09/17 01:16:30;;;;;;;12.77;8.90;;;;;;;11.97;91.23;97916.88;5039479;28;20123;-69
2022/09/17 01:19:08;;;;;;;10.35;9.25;;;;;;;11.94;91.68;97912.69;5060666;28;20064;-69
2022/09/17 01:21:56;;;;;;;9.18;8.27;;;;;;;11.92;91.62;97912.75;5062799;28;20045;-70
2022/09/17 01:24:39;;;;;;;10.80;8.80;;;;;;;11.81;90.96;97894.34;5058351;28;20070;-70
2022/09/17 01:27:17;;;;;;;10.05;9.02;;;;;;;11.81;91.27;97899.53;5058221;28;20446;-71
2022/09/17 01:30:03;;;;;;;13.20;9.52;;;;;;;11.87;90.64;97919.97;5060546;28;20025;-71
2022/09/17 01:32:41;;;;;;;11.23;9.10;;;;;;;11.86;91.25;97920.06;5060746;28;20108;-71
2022/09/17 01:35:21;;;;;;;12.70;10.00;;;;;;;11.73;90.52;97901.75;5062242;28;20029;-71
2022/09/17 01:37:59;;;;;;;10.48;9.43;;;;;;;11.82;90.12;97924.56;5062462;28;20256;-71
2022/09/17 01:40:37;;;;;;;10.90;9.80;;;;;;;11.75;90.49;97918.03;5062243;28;20051;-69
2022/09/17 01:43:13;;;;;;;12.80;11.20;;;;;;;11.74;90.58;97925.00;5060886;28;20033;-69
2022/09/17 01:45:55;;;;;;;13.93;10.95;;;;;;;11.74;90.70;97925.00;5064772;28;20024;-71
2022/09/17 01:48:28;;;;;;;13.35;11.40;;;;;;;11.66;90.05;97916.78;5066145;28;20202;-71
2022/09/17 01:51:03;;;;;;;13.50;10.73;;;;;;;11.55;90.54;97912.19;5066367;28;20021;-71
2022/09/17 01:53:42;;;;;;;13.23;10.77;;;;;;;11.63;90.78;97923.88;5081698;28;20025;-69
2022/09/17 01:56:09;;;;;;;13.38;10.20;;;;;;;11.63;91.14;97926.47;5065903;28;20092;-69
2022/09/17 01:58:47;;;;;;;11.70;10.50;;;;;;;11.55;90.88;97924.31;5066393;28;20083;-70
2022/09/17 02:01:16;;;;;;;12.57;11.25;;;;;;;11.54;90.39;97928.69;5066321;28;20024;-69
2022/09/17 02:03:52;;;;;;;11.95;10.60;;;;;;;11.44;90.11;97926.66;5065847;28;20033;-70
2022/09/17 02:06:26;;;;;;;11.95;10.55;;;;;;;11.48;90.43;97935.94;5065972;28;20065;-70
2022/09/17 02:09:04;;;;;;;14.07;11.05;;;;;;;11.52;90.30;97950.41;5065920;28;20025;-70
2022/09/17 02:11:35;;;;;;;12.40;10.40;;;;;;;11.46;90.99;97959.34;5066772;28;20049;-70
2022/09/17 02:14:10;;;;;;;11.05;9.95;;;;;;;11.38;90.52;97940.78;5064882;28;20043;-69
2022/09/17 02:16:43;;;;;;;11.38;10.13;;;;;;;11.45;90.79;97965.44;5068785;28;20379;-70
2022/09/17 02:19:15;;;;;;;10.52;9.43;;;;;;;11.38;90.26;97948.53;5066290;28;20036;-69
2022/09/17 02:22:08;;;;;;;10.60;9.50;;;;;;;11.47;91.11;97970.53;5066327;28;20028;-68
2022/09/17 02:25:03;;;;;;;10.00;8.90;;;;;;;11.44;90.37;97966.34;5065606;28;20044;-68
2022/09/17 02:27:55;;;;;;;10.07;8.68;;;;;;;11.45;90.59;97965.44;5062004;28;20037;-70
2022/09/17 02:30:21;;;;;;;11.95;10.25;;;;;;;11.44;90.39;97968.94;5045501;28;20345;-69
2022/09/17 02:32:47;;;;;;;10.90;9.73;;;;;;;11.39;90.74;97968.38;5063246;28;20060;-69
2022/09/17 02:35:13;;;;;;;9.85;8.45;;;;;;;11.38;90.74;97959.75;5064375;28;20197;-69
2022/09/17 02:37:41;;;;;;;9.88;8.88;;;;;;;11.15;91.21;97929.84;5065288;28;20067;-69
2022/09/17 02:40:08;;;;;;;9.52;8.52;;;;;;;11.35;90.37;97964.25;5065073;28;20036;-67
2022/09/17 02:43:01;;;;;;;11.77;9.45;;;;;;;11.36;90.68;97969.38;5066614;28;20060;-68
2022/09/17 02:46:13;;;;;;;11.90;10.68;;;;;;;11.36;90.69;97969.38;5045226;28;20072;-67
2022/09/17 02:49:11;;;;;;;9.43;8.40;;;;;;;11.26;90.73;97964.72;5028355;28;20037;-68
2022/09/17 02:51:46;;;;;;;10.23;8.02;;;;;;;11.23;90.30;97969.16;5065063;28;20073;-68
2022/09/17 02:54:37;;;;;;;11.18;8.40;;;;;;;11.22;90.51;97972.66;5045009;28;20119;-69
2022/09/17 02:57:13;;;;;;;8.80;7.65;;;;;;;11.13;89.64;97960.22;5064415;28;20068;-69
2022/09/17 02:59:46;;;;;;;8.45;7.47;;;;;;;11.21;89.53;97973.56;5065178;28;20106;-68
2022/09/17 03:02:24;;;;;;;10.70;7.82;;;;;;;11.15;90.35;97971.31;5063236;28;20037;-70
2022/09/17 03:04:51;;;;;;;8.65;7.85;;;;;;;11.17;90.07;97979.84;5063320;28;20317;-70
2022/09/17 03:07:19;;;;;;;9.75;8.35;;;;;;;11.14;89.48;97980.00;5064940;28;20024;-70
2022/09/17 03:09:44;;;;;;;8.52;7.50;;;;;;;11.01;89.51;97979.78;5046858;28;20021;-70
2022/09/17 03:12:11;;;;;;;8.07;6.75;;;;;;;11.00;89.62;97980.72;5063717;28;20045;-69
2022/09/17 03:14:36;;;;;;;8.48;6.82;;;;;;;11.01;89.96;97981.56;5064842;28;20031;-69
2022/09/17 03:17:03;;;;;;;7.80;6.68;;;;;;;11.02;89.80;97988.41;5063500;28;20040;-68
2022/09/17 03:19:28;;;;;;;12.50;7.25;;;;;;;11.01;89.77;97987.56;5064793;28;20021;-68
2022/09/17 03:21:54;;;;;;;9.70;8.18;;;;;;;11.03;89.71;97984.88;5063431;28;20348;-68
2022/09/17 03:24:20;;;;;;;8.23;7.10;;;;;;;11.05;90.02;97988.25;5064377;28;20309;-69
2022/09/17 03:26:49;;;;;;;7.57;6.80;;;;;;;11.02;89.69;97983.22;5064748;28;20067;-69
2022/09/17 03:29:15;;;;;;;7.28;6.57;;;;;;;11.04;90.02;97991.75;5062615;28;20257;-68
2022/09/17 03:31:41;;;;;;;8.02;6.63;;;;;;;11.00;89.82;97995.41;5063348;28;20053;-68
2022/09/17 03:34:06;;;;;;;7.88;6.13;;;;;;;10.97;89.77;97995.56;5064278;28;20024;-68
2022/09/17 03:36:33;;;;;;;6.65;5.93;;;;;;;11.00;89.91;98008.34;5063353;28;20024;-68
2022/09/17 03:38:59;;;;;;;10.30;6.47;;;;;;;10.96;89.72;98004.25;5064219;28;20322;-68
2022/09/17 03:41:25;;;;;;;5.95;5.30;;;;;;;11.01;89.41;98004.88;5064215;28;20032;-69
2022/09/17 03:43:51;;;;;;;6.82;6.00;;;;;;;11.03;89.94;97998.69;5064440;28;20032;-68
2022/09/17 03:46:17;;;;;;;9.27;6.22;;;;;;;11.05;89.46;98014.97;5064015;28;20037;-68
2022/09/17 03:48:43;;;;;;;7.03;5.50;;;;;;;11.00;90.15;98000.59;5064248;28;20025;-68
2022/09/17 03:51:08;;;;;;;6.43;5.57;;;;;;;11.00;90.21;97996.25;5064228;28;20090;-68
2022/09/17 03:53:34;;;;;;;6.80;5.85;;;;;;;11.02;90.48;97991.00;5062606;28;20025;-68
2022/09/17 03:56:02;;;;;;;6.57;5.55;;;;;;;11.07;90.20;97996.78;5063913;28;20130;-69
2022/09/17 03:58:29;;;;;;;6.72;5.60;;;;;;;11.05;89.80;98011.56;5060171;28;20213;-70
2022/09/17 04:00:56;;;;;;;6.35;5.30;;;;;;;11.04;90.09;98009.88;5063860;28;20059;-70
2022/09/17 04:03:27;;;;;;;7.38;5.95;;;;;;;11.05;90.41;98014.16;5062098;28;20071;-70
2022/09/17 04:05:53;;;;;;;6.50;5.10;;;;;;;11.01;89.92;98013.47;5062204;28;20025;-68
2022/09/17 04:08:19;;;;;;;8.70;6.05;;;;;;;11.10;90.51;98019.09;5062506;28;20048;-69
2022/09/17 04:10:45;;;;;;;6.82;5.38;;;;;;;11.11;90.22;98013.84;5063672;28;20029;-69
2022/09/17 04:13:13;;;;;;;8.23;5.82;;;;;;;11.11;90.56;98016.44;5046030;28;20127;-69
2022/09/17 04:15:39;;;;;;;12.60;6.05;;;;;;;11.11;89.89;98024.19;5063555;28;20347;-70
2022/09/17 04:18:04;;;;;;;6.38;5.28;;;;;;;11.10;89.75;98016.50;5062495;28;20028;-71
2022/09/17 04:20:30;;;;;;;8.35;6.15;;;;;;;11.16;90.37;98021.38;5062547;28;20341;-70
2022/09/17 04:22:56;;;;;;;6.35;5.00;;;;;;;11.22;89.77;98027.09;5078826;28;20029;-70
2022/09/17 04:25:22;;;;;;;9.27;5.55;;;;;;;11.19;90.56;98014.28;5063501;28;20059;-70
2022/09/17 04:27:48;;;;;;;7.35;5.80;;;;;;;11.19;90.94;98022.06;5045153;28;20297;-69
2022/09/17 04:30:14;;;;;;;10.38;6.18;;;;;;;11.18;90.59;98020.38;5062957;28;20041;-70
2022/09/17 04:32:41;;;;;;;8.07;6.10;;;;;;;11.21;90.21;98032.34;5063387;28;20083;-70
2022/09/17 04:35:07;;;;;;;11.23;5.50;;;;;;;11.20;90.05;98033.25;5062926;28;20033;-70
2022/09/17 04:37:33;;;;;;;7.53;5.45;;;;;;;11.22;90.65;98037.44;5063007;28;20036;-70
2022/09/17 04:39:58;;;;;;;6.55;5.47;;;;;;;11.31;90.70;98040.50;5062793;28;20036;-70
2022/09/17 04:42:24;;;;;;;13.27;6.07;;;;;;;11.29;90.14;98043.16;5062007;28;20067;-71
2022/09/17 04:44:49;;;;;;;11.48;6.22;;;;;;;11.29;91.14;98044.94;5062786;28;20033;-71
2022/09/17 04:47:15;;;;;;;6.82;5.85;;;;;;;11.24;90.67;98034.78;5063093;28;20031;-71
2022/09/17 04:49:41;;;;;;;9.95;6.30;;;;;;;11.25;90.23;98048.59;5063305;28;20041;-71
2022/09/17 04:52:06;;;;;;;8.32;5.55;;;;;;;11.38;90.50;98047.03;5063507;28;20029;-71
2022/09/17 04:54:32;;;;;;;6.13;5.50;;;;;;;11.37;90.68;98037.56;5062353;28;20077;-68
2022/09/17 04:56:58;;;;;;;7.97;6.15;;;;;;;11.26;90.90;98037.28;5065117;28;20128;-66
2022/09/17 04:59:24;;;;;;;9.00;6.47;;;;;;;11.35;90.16;98040.25;5061310;28;20021;-69
2022/09/17 05:01:50;;;;;;;10.13;5.80;;;;;;;11.35;90.36;98045.44;5062956;28;20065;-69
2022/09/17 05:04:15;;;;;;;8.40;5.80;;;;;;;11.36;90.16;98051.47;5062799;28;20028;-70
2022/09/17 05:06:41;;;;;;;7.18;5.47;;;;;;;11.48;90.48;98053.41;5062542;28;20402;-70
2022/09/17 05:09:07;;;;;;;9.07;5.53;;;;;;;11.52;89.86;98047.16;5062947;28;20028;-71
2022/09/17 05:11:32;;;;;;;7.40;5.78;;;;;;;11.56;90.38;98046.09;5061885;28;20049;-68
2022/09/17 05:13:58;;;;;;;9.63;6.15;;;;;;;11.61;89.68;98051.03;5062258;28;20041;-70
2022/09/17 05:16:24;;;;;;;6.95;5.60;;;;;;;11.65;88.82;98047.34;5061892;28;20272;-70
2022/09/17 05:18:50;;;;;;;8.13;6.57;;;;;;;11.66;89.86;98045.63;5068838;28;20035;-70
2022/09/17 05:21:17;;;;;;;7.63;6.82;;;;;;;11.66;91.23;98056.81;5063650;28;20047;-70
2022/09/17 05:23:43;;;;;;;8.18;6.90;;;;;;;11.82;90.94;98069.81;5077881;28;20060;-69
2022/09/17 05:26:09;;;;;;;9.52;6.88;;;;;;;11.84;90.52;98064.53;5070851;28;20078;-70
2022/09/17 05:28:35;;;;;;;8.35;5.75;;;;;;;11.93;91.13;98069.25;5070768;28;20251;-68
2022/09/17 05:31:01;;;;;;;11.38;6.47;;;;;;;11.94;90.94;98073.53;5070517;28;20032;-69
2022/09/17 05:33:27;;;;;;;7.65;5.32;;;;;;;11.92;89.46;98060.63;5073155;28;20020;-68
2022/09/17 05:35:53;;;;;;;6.43;4.50;;;;;;;11.95;86.40;98071.78;5068837;28;20029;-67
2022/09/17 05:38:19;;;;;;;7.00;4.18;;;;;;;11.84;86.03;98069.72;5066734;28;20096;-70
2022/09/17 05:40:45;;;;;;;6.88;4.65;;;;;;;12.02;86.94;98073.97;5061271;28;20209;-69
2022/09/17 05:43:10;;;;;;;5.38;4.10;;;;;;;12.07;86.50;98074.56;5061251;28;20028;-69
2022/09/17 05:45:37;;;;;;;6.18;4.25;;;;;;;12.12;87.13;98082.09;5069700;28;20017;-68
2022/09/17 05:48:05;;;;;;;7.00;4.30;;;;;;;12.02;83.20;98088.72;5063427;28;20041;-69
2022/09/17 05:50:32;;;;;;;4.82;3.90;;;;;;;12.18;83.34;98083.53;5062387;28;20029;-68
2022/09/17 05:53:07;;;;;;;5.28;3.95;;;;;;;12.19;84.38;98078.25;5061528;28;20030;-68
2022/09/17 05:55:36;;;;;;;5.45;3.90;;;;;;;12.30;82.83;98088.06;5062830;28;20362;-70
2022/09/17 05:58:13;;;;;;;7.88;3.95;;;;;;;12.32;82.70;98085.38;5062493;28;20021;-67
2022/09/17 06:00:41;;;;;;;6.95;3.90;;;;;;;12.42;83.50;98095.16;5070442;28;20020;-67
2022/09/17 06:03:10;;;;;;;7.25;4.13;;;;;;;12.50;84.86;98093.91;5062918;28;20289;-66
2022/09/17 06:05:36;;;;;;;4.90;3.85;;;;;;;12.58;83.58;98095.19;5060670;28;20087;-67
2022/09/17 06:08:02;;;;;;;7.45;4.25;;;;;;;12.62;83.67;98101.03;5060892;28;20544;-69
2022/09/17 06:10:27;;;;;;;8.13;3.70;;;;;;;12.68;82.53;98107.66;5062468;28;20029;-68
2022/09/17 06:12:59;;;;;;;6.90;3.97;;;;;;;12.68;80.32;98094.66;5053885;28;20117;-68
2022/09/17 06:15:26;;;;;;;10.05;4.95;;;;;;;12.71;82.54;98103.13;5061270;28;20134;-67
2022/09/17 06:17:52;;;;;;;10.00;5.22;;;;;;;12.84;82.48;98095.47;5062043;28;20025;-68
2022/09/17 06:20:19;;;;;;;6.00;4.85;;;;;;;12.88;80.96;98094.38;5062021;28;20036;-69
2022/09/17 06:22:45;;;;;;;7.35;4.97;;;;;;;12.99;82.11;98092.94;5061989;28;20115;-71
2022/09/17 06:25:11;;;;;;;5.95;4.88;;;;;;;13.08;82.10;98101.03;5061887;28;20027;-68
2022/09/17 06:27:37;;;;;;;6.45;4.55;;;;;;;13.18;80.87;98098.75;5062105;28;20059;-69
2022/09/17 06:30:04;;;;;;;6.22;3.97;;;;;;;13.19;79.88;98096.97;5061429;28;20032;-71
2022/09/17 06:32:30;;;;;;;7.40;4.53;;;;;;;13.26;78.20;98106.91;5063521;28;20037;-69
2022/09/17 06:34:56;;;;;;;7.78;4.50;;;;;;;13.47;80.52;98101.44;5062652;28;20104;-68
2022/09/17 06:37:29;;;;;;;9.52;4.47;;;;;;;13.56;79.66;98108.69;5064991;28;20097;-70
2022/09/17 06:39:55;;;;;;;9.07;4.18;;;;;;;13.62;75.01;98104.88;5065799;28;20105;-69
2022/09/17 06:42:21;;;;;;;9.80;4.10;;;;;;;13.85;76.84;98111.31;5065745;28;20033;-68
2022/09/17 06:44:47;;;;;;;11.00;4.88;;;;;;;14.12;77.40;98106.19;5064936;28;20636;-70
2022/09/17 06:47:12;;;;;;;9.80;3.72;;;;;;;14.23;74.24;98109.91;5067655;28;20063;-68
2022/09/17 06:49:38;;;;;;;7.28;3.90;;;;;;;14.17;74.39;98110.28;5077712;28;20202;-67
2022/09/17 06:52:03;;;;;;;9.23;4.18;;;;;;;14.19;74.12;98111.84;5061642;28;20071;-67
2022/09/17 06:54:30;;;;;;;5.97;3.25;;;;;;;14.19;72.41;98106.63;5065506;28;20021;-68
2022/09/17 06:56:55;;;;;;;9.02;3.10;;;;;;;14.31;69.91;98116.31;5071690;28;20426;-67
2022/09/17 06:59:21;;;;;;;7.95;3.65;;;;;;;14.41;73.06;98118.31;5063624;28;20029;-67
2022/09/17 07:01:47;;;;;;;4.47;2.47;;;;;;;14.36;69.36;98126.44;5059703;28;20028;-68
2022/09/17 07:04:12;;;;;;;7.70;2.95;;;;;;;14.34;69.41;98110.06;5056610;28;20237;-66
2022/09/17 07:06:38;;;;;;;4.88;2.53;;;;;;;14.32;69.99;98110.16;5060593;28;20024;-66
2022/09/17 07:09:06;;;;;;;7.47;3.10;;;;;;;14.30;69.87;98108.59;5062717;28;20037;-68
2022/09/17 07:11:32;;;;;;;5.40;2.60;;;;;;;14.39;69.88;98120.19;5062864;28;20057;-67
2022/09/17 07:13:58;;;;;;;8.48;2.97;;;;;;;14.39;69.08;98118.41;5064096;28;20028;-67
2022/09/17 07:16:25;;;;;;;6.40;2.70;;;;;;;14.29;68.55;98131.19;5064511;28;20037;-68
2022/09/17 07:18:51;;;;;;;6.88;2.80;;;;;;;14.46;69.79;98129.28;5063757;28;20300;-66
2022/09/17 07:21:17;;;;;;;5.43;2.47;;;;;;;14.39;67.81;98121.03;5064189;28;20047;-67
2022/09/17 07:23:44;;;;;;;8.98;2.75;;;;;;;14.39;68.09;98120.19;5064842;28;20313;-67
2022/09/17 07:26:15;;;;;;;5.90;2.35;;;;;;;14.54;68.95;98139.25;5064177;28;20049;-67
2022/09/17 07:28:42;;;;;;;5.40;2.90;;;;;;;14.55;67.15;98146.13;5064300;28;20100;-67
2022/09/17 07:31:09;;;;;;;5.35;2.72;;;;;;;14.43;66.99;98145.94;5064480;28;20029;-68
2022/09/17 07:33:36;;;;;;;5.80;2.55;;;;;;;14.57;68.07;98145.09;5064213;28;20028;-68
2022/09/17 07:36:04;;;;;;;11.57;3.33;;;;;;;14.68;69.15;98147.06;5063354;28;20020;-69
2022/09/17 07:38:31;;;;;;;7.32;2.38;;;;;;;14.63;67.40;98144.72;5064488;28;20031;-68
2022/09/17 07:41:12;;;;;;;7.28;2.90;;;;;;;14.72;65.87;98145.94;5068911;28;20039;-68
2022/09/17 07:43:38;;;;;;;5.47;2.95;;;;;;;14.83;67.11;98147.84;5067307;28;20036;-71
2022/09/17 07:46:05;;;;;;;8.40;3.05;;;;;;;14.98;69.09;98140.84;5064822;28;20032;-68
2022/09/17 07:48:31;;;;;;;7.30;2.40;;;;;;;14.94;63.79;98157.59;5064597;28;20059;-70
2022/09/17 07:50:57;;;;;;;5.72;2.50;;;;;;;14.97;64.62;98141.75;5063970;28;20028;-67
2022/09/17 07:53:23;;;;;;;10.57;2.35;;;;;;;15.06;64.13;98138.53;5064292;28;20337;-66
2022/09/17 07:55:52;;;;;;;4.82;1.98;;;;;;;15.11;62.15;98154.72;5063017;28;20020;-68
2022/09/17 07:58:19;;;;;;;7.65;2.00;;;;;;;15.11;62.60;98143.47;5063723;28;20097;-69
2022/09/17 08:00:45;;;;;;;9.85;2.30;;;;;;;15.08;63.27;98144.50;5064034;28;20067;-71
2022/09/17 08:03:10;;;;;;;5.55;2.05;;;;;;;15.13;62.98;98152.84;5062806;28;20547;-70
2022/09/17 08:05:37;;;;;;;6.57;1.90;;;;;;;15.23;63.11;98153.09;5063928;28;20036;-65
2022/09/17 08:08:02;;;;;;;7.50;2.10;;;;;;;15.32;63.49;98146.44;5070323;28;20038;-67
2022/09/17 08:10:28;;;;;;;11.15;2.15;;;;;;;15.28;62.02;98158.84;5064526;28;20387;-69
2022/09/17 08:12:55;;;;;;;7.10;3.08;;;;;;;15.23;63.33;98147.03;5063706;28;20059;-67
2022/09/17 08:15:22;;;;;;;6.05;2.15;;;;;;;15.35;62.04;98169.72;5043563;28;20048;-67
2022/09/17 08:17:48;;;;;;;5.78;2.33;;;;;;;15.35;60.53;98157.50;5059054;28;20032;-66
2022/09/17 08:20:15;;;;;;;8.10;2.17;;;;;;;15.39;59.98;98157.31;5063304;28;20029;-68
2022/09/17 08:22:41;;;;;;;12.23;2.63;;;;;;;15.41;60.71;98160.66;5063464;28;20032;-67
2022/09/17 08:25:08;;;;;;;8.15;2.33;;;;;;;15.43;60.38;98158.78;5063546;28;20036;-67
2022/09/17 08:27:35;;;;;;;4.28;2.20;;;;;;;15.47;57.58;98162.84;5063216;28;20032;-65
2022/09/17 08:30:00;;;;;;;4.85;1.80;;;;;;;15.41;58.54;98158.06;5062374;28;20029;-67
2022/09/17 08:32:29;;;;;;;4.28;2.05;;;;;;;15.56;59.25;98167.44;5063280;28;20039;-69
2022/09/17 08:34:55;;;;;;;6.40;1.75;;;;;;;15.53;58.72;98162.44;5062706;28;20036;-67
2022/09/17 08:37:20;;;;;;;4.35;2.00;;;;;;;15.77;57.46;98159.13;5061767;28;20020;-69
2022/09/17 08:39:46;;;;;;;6.82;1.80;;;;;;;16.07;54.26;98158.84;5063437;28;20021;-68
2022/09/17 08:42:18;;;;;;;10.77;2.22;;;;;;;16.30;53.96;98148.56;5062973;28;20029;-67
2022/09/17 08:44:46;;;;;;;4.55;1.98;;;;;;;16.38;55.48;98146.28;5062839;28;20187;-66
2022/09/17 08:47:42;;;;;;;5.63;1.70;;;;;;;16.72;54.56;98144.69;5063055;28;20020;-66
2022/09/17 08:50:38;;;;;;;8.48;2.03;;;;;;;17.11;52.65;98170.72;5062972;28;20096;-67
2022/09/17 08:53:25;;;;;;;8.90;2.33;;;;;;;17.00;50.86;98165.44;5060974;28;20324;-66
2022/09/17 08:55:57;;;;;;;7.07;2.08;;;;;;;17.32;52.23;98170.94;5061874;28;20032;-65
2022/09/17 08:59:01;;;;;;;5.70;1.77;;;;;;;17.60;51.62;98168.91;5062732;28;20228;-67
2022/09/17 09:01:36;;;;;;;6.20;1.92;;;;;;;17.88;51.27;98164.19;5066271;28;20025;-67
2022/09/17 09:04:29;;;;;;;6.32;1.90;;;;;;;17.94;50.73;98164.59;5068924;28;20548;-66
2022/09/17 09:07:01;;;;;;;7.00;1.73;;;;;;;17.74;48.79;98158.22;5071052;28;20040;-64
2022/09/17 09:09:34;;;;;;;5.03;1.70;;;;;;;17.84;49.78;98165.34;5069062;28;20049;-67
2022/09/17 09:12:04;;;;;;;9.80;1.90;;;;;;;17.49;49.17;98164.44;5069732;28;20040;-68
2022/09/17 09:14:36;;;;;;;;;;;;;;;17.52;47.36;98158.16;5070758;28;20041;-66
2022/09/17 09:17:08;;;;;;;7.38;2.15;;;;;;;17.62;49.53;98163.53;5070563;28;19920;-68
2022/09/17 09:19:43;;;;;;;7.55;2.25;;;;;;;17.56;49.59;98144.72;5062990;28;20040;-68
2022/09/17 09:22:44;;;;;;;3.72;1.67;;;;;;;17.99;49.66;98160.78;5067081;28;20051;-67
2022/09/17 09:25:17;;;;;;;4.07;1.90;;;;;;;18.05;48.90;98160.31;5059266;28;20063;-66
2022/09/17 09:27:57;;;;;;;6.97;1.92;;;;;;;17.99;46.62;98176.50;5061480;28;20029;-68
2022/09/17 09:30:41;;;;;;;8.15;1.67;;;;;;;17.68;46.90;98169.13;5062709;28;20036;-69
2022/09/17 09:33:27;;;;;;;6.97;1.90;;;;;;;17.39;48.88;98169.53;5061900;28;20123;-69
2022/09/17 09:35:52;;;;;;;5.65;2.00;;;;;;;17.27;47.98;98185.31;5062266;28;20029;-67
2022/09/17 09:38:31;;;;;;;3.40;1.58;;;;;;;17.40;47.63;98173.81;5068180;28;20067;-68
2022/09/17 09:41:11;;;;;;;4.35;1.80;;;;;;;17.42;47.56;98176.31;5062225;28;20036;-68
2022/09/17 09:43:46;;;;;;;3.85;1.80;;;;;;;17.47;48.60;98162.88;5061282;28;20377;-67
2022/09/17 09:46:28;;;;;;;7.13;1.92;;;;;;;17.57;48.40;98174.34;5061823;28;20037;-67
2022/09/17 09:49:07;;;;;;;5.45;1.90;;;;;;;17.48;47.99;98181.09;5061916;28;20035;-67
2022/09/17 09:51:59;;;;;;;2.75;1.17;;;;;;;17.32;45.88;98184.03;5042659;28;20325;-66
2022/09/17 09:54:44;;;;;;;3.40;1.20;;;;;;;17.19;46.59;98175.41;5051269;28;20041;-66
2022/09/17 09:57:14;;;;;;;7.38;1.63;;;;;;;17.13;47.04;98186.31;5061895;28;20033;-69
2022/09/17 09:59:42;;;;;;;5.45;1.33;;;;;;;17.05;46.54;98195.53;5062044;28;20033;-67
2022/09/17 10:02:09;;;;;;;2.63;0.98;;;;;;;16.97;46.35;98194.44;5062122;28;20070;-69
2022/09/17 10:04:34;;;;;;;2.75;1.10;;;;;;;16.86;46.01;98190.78;5059047;28;20035;-68
2022/09/17 10:07:08;;;;;;;3.22;1.52;;;;;;;16.97;46.64;98186.59;5058677;28;20052;-69
2022/09/17 10:09:36;;;;;;;4.47;1.20;;;;;;;16.99;47.57;98175.06;5063020;28;20028;-69
2022/09/17 10:12:14;;;;;;;4.32;1.48;;;;;;;17.13;47.23;98202.00;5065446;28;20508;-71
2022/09/17 10:14:41;;;;;;;5.13;1.15;;;;;;;17.00;44.80;98183.75;5065294;28;20040;-70
2022/09/17 10:17:24;;;;;;;2.72;1.05;;;;;;;17.08;42.75;98192.69;5065214;28;20027;-69
2022/09/17 10:20:11;;;;;;;1.15;1.00;;;;;;;17.11;42.83;98207.34;5065810;28;20024;-72
2022/09/17 10:22:39;;;;;;;7.93;3.35;;;;;;;16.87;43.66;98192.47;5064780;28;20025;-70
2022/09/17 10:25:26;;;;;;;6.95;1.52;;;;;;;16.95;44.67;98214.66;5076314;28;20028;-69
2022/09/17 10:27:52;;;;;;;4.93;1.50;;;;;;;16.90;45.87;98214.94;5066597;28;20045;-71
2022/09/17 10:30:18;;;;;;;5.47;1.30;;;;;;;16.85;45.86;98217.03;5065447;28;20036;-69
2022/09/17 10:33:09;;;;;;;1.92;1.10;;;;;;;16.86;46.06;98208.22;5065336;28;20270;-70
2022/09/17 10:35:35;;;;;;;3.88;1.23;;;;;;;16.85;46.84;98217.03;5065415;28;20086;-70
2022/09/17 10:38:00;;;;;;;4.22;1.50;;;;;;;16.91;47.18;98209.59;5070833;28;20303;-69
2022/09/17 10:40:29;;;;;;;3.20;1.20;;;;;;;17.02;48.17;98218.50;5063162;28;20037;-69
2022/09/17 10:43:15;;;;;;;2.60;1.42;;;;;;;17.03;46.58;98215.75;5065340;28;20056;-68
2022/09/17 10:45:44;;;;;;;3.10;1.42;;;;;;;17.16;48.02;98230.56;5045545;28;20044;-69
2022/09/17 10:48:16;;;;;;;3.92;1.38;;;;;;;17.03;42.42;98202.69;5062590;28;20033;-67
2022/09/17 10:50:48;;;;;;;2.35;1.08;;;;;;;17.24;44.75;98210.75;5065090;28;20028;-68
2022/09/17 10:53:18;;;;;;;4.72;1.60;;;;;;;17.24;45.23;98207.28;5065015;28;20028;-69
2022/09/17 10:56:11;;;;;;;2.55;1.20;;;;;;;16.99;43.88;98219.53;5064698;28;20033;-68
2022/09/17 10:58:51;;;;;;;2.75;1.30;;;;;;;16.87;45.23;98212.53;5065245;28;20348;-68
2022/09/17 11:01:30;;;;;;;5.90;2.20;;;;;;;16.81;44.12;98215.59;5065191;28;20024;-68
2022/09/17 11:03:56;;;;;;;2.97;1.40;;;;;;;16.93;45.86;98226.97;5065021;28;20025;-68
2022/09/17 11:06:46;;;;;;;5.50;1.25;;;;;;;16.86;47.08;98229.16;5064912;28;20048;-69
2022/09/17 11:09:30;;;;;;;4.45;1.40;;;;;;;16.68;48.88;98239.97;5064222;28;20029;-68
2022/09/17 11:12:33;;;;;;;3.75;1.15;;;;;;;16.62;46.52;98237.81;5064108;28;20096;-69
2022/09/17 11:15:10;;;;;;;6.28;1.30;;;;;;;16.82;47.03;98246.84;5063320;28;20033;-68
2022/09/17 11:18:13;;;;;;;3.92;1.50;;;;;;;16.96;47.29;98238.06;5058944;28;20037;-71
2022/09/17 11:21:03;;;;;;;4.15;1.48;;;;;;;17.00;47.43;98230.81;5063888;28;20201;-69
2022/09/17 11:23:50;;;;;;;6.25;1.55;;;;;;;16.98;46.84;98230.09;5064430;28;20047;-67
2022/09/17 11:26:35;;;;;;;2.90;1.73;;;;;;;16.65;47.78;98240.19;5064483;28;20037;-70
2022/09/17 11:29:26;;;;;;;4.70;1.50;;;;;;;16.34;48.84;98238.88;5064535;28;20028;-69
2022/09/17 11:32:06;;;;;;;7.30;2.25;;;;;;;16.32;49.46;98236.38;5064107;28;20092;-67
2022/09/17 11:34:44;;;;;;;2.88;1.35;;;;;;;16.39;49.91;98234.19;5065844;28;20025;-69
2022/09/17 11:37:15;;;;;;;4.68;1.50;;;;;;;16.36;49.47;98248.28;5064297;28;20263;-68
2022/09/17 11:39:54;;;;;;;4.45;1.83;;;;;;;16.32;50.02;98246.00;5074665;28;20522;-68
2022/09/17 11:42:28;;;;;;;5.43;1.50;;;;;;;16.30;50.25;98235.63;5061074;28;20065;-70
2022/09/17 11:45:01;;;;;;;2.45;1.35;;;;;;;16.33;50.82;98245.88;5063712;28;20028;-68
2022/09/17 11:47:36;;;;;;;5.55;1.80;;;;;;;16.39;48.99;98252.47;5053362;28;20041;-68
2022/09/17 11:50:18;;;;;;;3.65;1.30;;;;;;;16.46;49.98;98248.50;5064092;28;20044;-66
2022/09/17 11:53:05;;;;;;;7.05;1.60;;;;;;;16.67;50.56;98247.94;5061092;28;20251;-69